Time;durP1;ratioP1;P1;durP2;ratioP2;P2;SDS_P1;SDS_P2;PMS_P1;PMS_P2;Temp;Humidity;BMP_temperature;BMP_pressure;BME280_temperature;BME280_humidity;BME280_pressure;Samples;Min_cycle;Max_cycle;Signal;HPM_P1;HPM_P2
2023/07/22 00:02:58;;;;;;;4.95;2.72;;;;;;;16.51;100.00;99663.78;12196240;19;20014;-79
2023/07/22 00:07:00;;;;;;;5.03;2.90;;;;;;;16.46;100.00;99658.28;12222579;19;20023;-80
2023/07/22 00:11:01;;;;;;;4.05;2.58;;;;;;;16.38;100.00;99653.34;12222225;19;20021;-80
2023/07/22 00:15:04;;;;;;;9.18;3.00;;;;;;;16.32;100.00;99654.50;12191291;19;20018;-79
2023/07/22 00:19:07;;;;;;;5.40;3.03;;;;;;;16.27;100.00;99665.66;12223431;19;20020;-78
2023/07/22 00:23:10;;;;;;;5.05;3.15;;;;;;;16.28;100.00;99670.94;12226455;19;20026;-80
2023/07/22 00:27:12;;;;;;;4.30;2.65;;;;;;;16.30;100.00;99677.06;12234735;19;20002;-82
2023/07/22 00:31:14;;;;;;;4.43;3.20;;;;;;;16.34;100.00;99674.50;12221640;19;20641;-81
2023/07/22 00:35:16;;;;;;;6.05;2.55;;;;;;;16.35;100.00;99667.81;12210949;19;20565;-80
2023/07/22 00:39:18;;;;;;;6.28;2.67;;;;;;;16.37;100.00;99671.16;12219530;19;20022;-80
2023/07/22 00:43:19;;;;;;;5.50;3.17;;;;;;;16.35;100.00;99668.66;12213295;19;20010;-78
2023/07/22 00:47:22;;;;;;;3.35;2.38;;;;;;;16.32;100.00;99663.66;12193635;19;20006;-80
2023/07/22 00:51:24;;;;;;;4.30;2.80;;;;;;;16.23;100.00;99665.41;12213922;19;20010;-80
2023/07/22 00:55:26;;;;;;;5.95;2.90;;;;;;;16.11;100.00;99668.56;12215675;19;20025;-80
2023/07/22 00:59:28;;;;;;;5.78;2.83;;;;;;;16.01;100.00;99662.28;12193987;19;20100;-80
2023/07/22 01:03:30;;;;;;;4.93;2.83;;;;;;;15.94;100.00;99662.59;12216231;19;20017;-78
2023/07/22 01:07:32;;;;;;;3.88;2.85;;;;;;;15.84;100.00;99657.09;12209699;19;20002;-78
2023/07/22 01:11:34;;;;;;;6.18;3.03;;;;;;;15.74;100.00;99658.00;12193218;19;20006;-78
2023/07/22 01:15:37;;;;;;;4.25;2.35;;;;;;;15.67;100.00;99652.75;12218561;19;20011;-78
2023/07/22 01:19:40;;;;;;;4.28;2.80;;;;;;;15.59;100.00;99653.34;12225564;19;20010;-78
2023/07/22 01:23:42;;;;;;;3.97;2.72;;;;;;;15.56;100.00;99661.44;12204687;19;20495;-78
2023/07/22 01:27:44;;;;;;;6.22;3.00;;;;;;;15.58;100.00;99653.63;12228577;19;20014;-78
2023/07/22 01:31:48;;;;;;;4.68;3.05;;;;;;;15.59;100.00;99650.56;12227125;19;20074;-77
2023/07/22 01:35:50;;;;;;;5.53;3.17;;;;;;;15.61;100.00;99656.66;12202356;19;20010;-78
2023/07/22 01:39:52;;;;;;;4.33;3.07;;;;;;;15.62;100.00;99654.72;12226760;19;20386;-78
2023/07/22 01:43:54;;;;;;;4.95;3.25;;;;;;;15.63;100.00;99661.94;12225229;19;20010;-78
2023/07/22 01:47:56;;;;;;;4.28;2.67;;;;;;;15.65;100.00;99663.31;12206658;19;20010;-79
2023/07/22 01:51:58;;;;;;;6.57;3.25;;;;;;;15.65;100.00;99654.16;12225810;19;20007;-79
2023/07/22 01:56:00;;;;;;;4.57;3.05;;;;;;;15.62;100.00;99655.56;12228447;19;20014;-78
2023/07/22 02:00:05;;;;;;;3.63;2.97;;;;;;;15.64;100.00;99655.25;12206224;19;20017;-79
2023/07/22 02:04:13;;;;;;;4.90;3.05;;;;;;;15.65;100.00;99657.75;12226420;19;20018;-78
2023/07/22 02:08:15;;;;;;;8.18;3.10;;;;;;;15.69;100.00;99649.72;12230211;19;20046;-78
2023/07/22 02:12:16;;;;;;;4.63;2.97;;;;;;;15.68;100.00;99645.28;12205447;19;20006;-78
2023/07/22 02:16:18;;;;;;;5.88;3.15;;;;;;;15.67;100.00;99640.78;12223941;19;20384;-78
2023/07/22 02:20:20;;;;;;;4.70;2.83;;;;;;;15.63;100.00;99648.88;12204600;19;20011;-78
2023/07/22 02:24:22;;;;;;;4.78;2.90;;;;;;;15.62;100.00;99654.72;12225702;19;20015;-78
2023/07/22 02:28:24;;;;;;;4.13;2.77;;;;;;;15.51;100.00;99651.16;12223506;19;20015;-78
2023/07/22 02:32:26;;;;;;;4.47;2.70;;;;;;;15.41;100.00;99651.25;12206114;19;20354;-78
2023/07/22 02:36:28;;;;;;;5.63;3.55;;;;;;;15.33;100.00;99644.31;12223073;19;20465;-78
2023/07/22 02:40:34;;;;;;;7.90;3.55;;;;;;;15.25;100.00;99661.56;12227121;19;20178;-78
2023/07/22 02:44:36;;;;;;;3.90;3.00;;;;;;;15.16;100.00;99654.94;12202617;19;20011;-78
2023/07/22 02:48:39;;;;;;;5.22;3.08;;;;;;;15.07;100.00;99653.88;12225688;19;20014;-78
2023/07/22 02:52:41;;;;;;;;;;;;;;;14.94;100.00;99656.16;12226905;19;20569;-78
2023/07/22 02:56:43;;;;;;;4.57;2.95;;;;;;;14.89;100.00;99647.84;12204332;19;19915;-78
2023/07/22 03:00:44;;;;;;;4.57;3.28;;;;;;;14.88;100.00;99662.81;12224942;19;20006;-78
2023/07/22 03:04:46;;;;;;;4.20;3.00;;;;;;;14.86;100.00;99665.03;12223732;19;20461;-79
2023/07/22 03:08:48;;;;;;;4.82;3.28;;;;;;;14.81;100.00;99653.94;12204425;19;20021;-78
2023/07/22 03:12:54;;;;;;;6.03;3.22;;;;;;;14.71;100.00;99654.00;12227390;19;20006;-78
2023/07/22 03:16:56;;;;;;;4.50;2.95;;;;;;;14.64;100.00;99650.69;12227841;19;20007;-79
2023/07/22 03:20:58;;;;;;;11.57;3.43;;;;;;;14.55;100.00;99651.25;12204329;19;20018;-78
2023/07/22 03:25:00;;;;;;;5.32;3.92;;;;;;;14.51;100.00;99664.00;12221297;19;20590;-78
2023/07/22 03:29:03;;;;;;;5.43;3.38;;;;;;;14.44;100.00;99668.16;12225356;19;20370;-79
2023/07/22 03:33:06;;;;;;;6.68;3.45;;;;;;;14.36;100.00;99672.31;12205431;19;20014;-79
2023/07/22 03:37:09;;;;;;;7.75;3.70;;;;;;;14.29;100.00;99669.00;12228153;19;20006;-79
2023/07/22 03:41:11;;;;;;;5.55;3.45;;;;;;;14.25;100.00;99665.13;12228683;19;20003;-79
2023/07/22 03:45:12;;;;;;;5.32;3.33;;;;;;;14.19;100.00;99658.75;12202362;19;20010;-79
2023/07/22 03:49:15;;;;;;;8.15;3.38;;;;;;;14.18;100.00;99673.69;12224401;19;20014;-79
2023/07/22 03:53:16;;;;;;;6.87;3.53;;;;;;;14.14;100.00;99686.44;12208690;19;20019;-79
2023/07/22 03:57:18;;;;;;;5.70;3.75;;;;;;;14.07;100.00;99686.72;12228214;19;20082;-80
2023/07/22 04:01:20;;;;;;;6.10;3.55;;;;;;;14.04;100.00;99676.19;12230053;19;20018;-79
2023/07/22 04:05:22;;;;;;;6.20;3.78;;;;;;;14.03;100.00;99674.53;12205681;19;20035;-79
2023/07/22 04:09:24;;;;;;;5.97;3.60;;;;;;;14.05;100.00;99672.31;12228701;19;20058;-80
2023/07/22 04:13:26;;;;;;;7.25;3.65;;;;;;;14.05;100.00;99675.09;12226449;19;20043;-80
2023/07/22 04:17:28;;;;;;;7.38;4.25;;;;;;;14.04;100.00;99670.66;12206213;19;20337;-80
2023/07/22 04:21:30;;;;;;;5.90;3.88;;;;;;;14.07;100.00;99675.66;12226983;19;20104;-79
2023/07/22 04:25:32;;;;;;;6.80;3.92;;;;;;;14.07;100.00;99670.09;12222621;19;20006;-79
2023/07/22 04:29:35;;;;;;;7.13;4.00;;;;;;;14.11;100.00;99668.44;12205041;19;20090;-79
2023/07/22 04:33:41;;;;;;;5.20;3.85;;;;;;;14.19;100.00;99671.75;12219812;19;20050;-80
2023/07/22 04:37:44;;;;;;;7.55;4.05;;;;;;;14.24;100.00;99671.75;12221970;19;20010;-80
2023/07/22 04:41:46;;;;;;;8.82;3.90;;;;;;;14.29;100.00;99677.31;12200149;19;20010;-79
2023/07/22 04:45:48;;;;;;;4.93;3.60;;;;;;;14.33;100.00;99681.19;12220612;19;20380;-80
2023/07/22 04:49:49;;;;;;;8.02;4.05;;;;;;;14.39;100.00;99682.84;12219173;19;20006;-80
2023/07/22 04:53:51;;;;;;;8.35;4.00;;;;;;;14.42;100.00;99687.00;12200668;19;20003;-80
2023/07/22 04:57:54;;;;;;;5.72;3.80;;;;;;;14.49;100.00;99679.25;12221302;19;20006;-79
2023/07/22 05:01:56;;;;;;;6.53;3.55;;;;;;;14.56;100.00;99680.63;12228510;19;20357;-80
2023/07/22 05:05:58;;;;;;;6.10;3.80;;;;;;;14.69;100.00;99681.16;12197153;19;20013;-80
2023/07/22 05:10:00;;;;;;;5.60;3.93;;;;;;;14.78;100.00;99687.81;12219470;19;20011;-80
2023/07/22 05:14:02;;;;;;;7.80;3.87;;;;;;;14.88;100.00;99687.78;12219745;19;20516;-80
2023/07/22 05:18:03;;;;;;;6.18;3.58;;;;;;;15.02;100.00;99688.88;12200799;19;20002;-79
2023/07/22 05:22:07;;;;;;;7.60;4.07;;;;;;;15.19;100.00;99696.00;12221999;19;20460;-79
2023/07/22 05:26:08;;;;;;;6.88;4.13;;;;;;;15.33;100.00;99697.06;12220534;19;20014;-79
2023/07/22 05:30:10;;;;;;;6.93;4.00;;;;;;;15.47;100.00;99705.63;12201876;19;20861;-79
2023/07/22 05:34:29;;;;;;;5.10;3.67;;;;;;;15.53;100.00;99687.81;12224437;19;20025;-79
2023/07/22 05:38:32;;;;;;;;;;;;;;;15.77;100.00;99695.50;12199027;19;20034;-79
2023/07/22 05:42:34;;;;;;;5.78;3.80;;;;;;;16.16;100.00;99698.28;12231341;19;19911;-79
2023/07/22 05:46:35;;;;;;;6.47;3.95;;;;;;;16.52;100.00;99698.81;12221832;19;20038;-79
2023/07/22 05:50:37;;;;;;;7.43;3.72;;;;;;;16.89;100.00;99693.75;12201140;19;20022;-79
2023/07/22 05:54:39;;;;;;;5.72;3.80;;;;;;;17.15;100.00;99691.53;12224276;19;20021;-79
2023/07/22 05:58:41;;;;;;;8.73;4.30;;;;;;;17.40;100.00;99690.38;12220334;19;20025;-80
2023/07/22 06:02:43;;;;;;;10.57;4.25;;;;;;;17.61;100.00;99689.00;12208024;19;20023;-79
2023/07/22 06:06:45;;;;;;;5.80;3.80;;;;;;;17.73;100.00;99685.78;12231702;19;20006;-79
2023/07/22 06:10:46;;;;;;;5.88;3.90;;;;;;;17.84;100.00;99692.03;12232056;19;20011;-79
2023/07/22 06:14:49;;;;;;;5.72;3.95;;;;;;;17.91;100.00;99696.13;12211704;19;20023;-79
2023/07/22 06:18:51;;;;;;;7.50;3.65;;;;;;;18.11;100.00;99694.97;12234747;19;20074;-79
2023/07/22 06:22:54;;;;;;;7.07;3.88;;;;;;;18.39;100.00;99703.47;12232521;19;20009;-78
2023/07/22 06:26:57;;;;;;;7.40;3.92;;;;;;;18.65;100.00;99707.47;12210952;19;20006;-79
2023/07/22 06:30:58;;;;;;;6.18;3.60;;;;;;;18.83;100.00;99705.78;12233638;19;20005;-80
2023/07/22 06:35:00;;;;;;;8.27;3.83;;;;;;;19.04;98.47;99719.38;12233740;19;20015;-80
2023/07/22 06:39:03;;;;;;;5.60;3.47;;;;;;;19.20;96.20;99717.09;12217948;19;20027;-80
2023/07/22 06:43:06;;;;;;;4.95;3.45;;;;;;;19.24;94.34;99723.72;12264568;19;20014;-79
2023/07/22 06:47:08;;;;;;;4.82;3.22;;;;;;;19.08;94.78;99721.22;12267903;19;20049;-80
2023/07/22 06:51:09;;;;;;;8.40;3.60;;;;;;;19.07;96.25;99721.53;12249601;19;20006;-79
2023/07/22 06:55:11;;;;;;;5.55;3.50;;;;;;;19.29;94.46;99724.44;12232757;19;20017;-80
2023/07/22 06:59:15;;;;;;;6.22;3.60;;;;;;;19.45;92.60;99719.38;12232278;19;20011;-81
2023/07/22 07:03:17;;;;;;;8.43;3.73;;;;;;;19.56;90.74;99728.38;12205073;19;20014;-80
2023/07/22 07:07:18;;;;;;;7.97;4.00;;;;;;;19.59;88.42;99727.75;12222846;19;20017;-80
2023/07/22 07:11:20;;;;;;;7.32;4.40;;;;;;;19.58;88.00;99726.94;12207329;19;20467;-81
2023/07/22 07:15:24;;;;;;;8.98;3.70;;;;;;;19.79;88.00;99718.13;12224773;19;20014;-80
2023/07/22 07:19:26;;;;;;;6.37;3.90;;;;;;;19.94;87.25;99720.59;12226916;19;20002;-80
2023/07/22 07:23:28;;;;;;;6.35;3.35;;;;;;;20.20;85.70;99729.22;12205495;19;20028;-81
2023/07/22 07:27:30;;;;;;;5.57;3.45;;;;;;;20.29;84.55;99723.69;12226480;19;20013;-80
2023/07/22 07:31:33;;;;;;;6.25;3.58;;;;;;;20.30;83.33;99727.31;12228533;19;20063;-80
2023/07/22 07:35:35;;;;;;;7.35;3.80;;;;;;;20.42;83.43;99722.78;12181832;19;21445;-80
2023/07/22 07:39:37;;;;;;;5.38;3.28;;;;;;;20.51;80.73;99722.03;12224777;19;20025;-80
2023/07/22 07:43:41;;;;;;;6.45;3.75;;;;;;;20.68;76.94;99736.19;12227070;19;20472;-80
2023/07/22 07:47:43;;;;;;;4.65;3.15;;;;;;;20.78;77.16;99737.91;12199783;19;20017;-81
2023/07/22 07:51:44;;;;;;;5.68;3.25;;;;;;;20.98;74.78;99736.53;12227909;19;20026;-79
2023/07/22 07:55:46;;;;;;;6.40;3.60;;;;;;;20.92;72.91;99736.66;12223907;19;20361;-80
2023/07/22 07:59:49;;;;;;;5.30;3.60;;;;;;;20.89;74.85;99736.50;12206153;19;20702;-80
2023/07/22 08:03:50;;;;;;;6.93;3.28;;;;;;;21.23;72.73;99730.22;12224525;19;20011;-80
2023/07/22 08:07:52;;;;;;;6.57;4.33;;;;;;;21.53;71.83;99733.34;12225011;19;20022;-79
2023/07/22 08:11:54;;;;;;;6.67;3.87;;;;;;;21.77;68.70;99730.09;12203592;19;20010;-80
2023/07/22 08:16:01;;;;;;;9.35;3.95;;;;;;;21.91;68.56;99742.00;12223635;19;20350;-80
2023/07/22 08:20:05;;;;;;;6.60;4.20;;;;;;;21.78;68.79;99735.41;12227472;19;20009;-80
2023/07/22 08:24:07;;;;;;;7.63;3.55;;;;;;;21.85;68.51;99735.72;12200993;19;20011;-80
2023/07/22 08:28:09;;;;;;;5.25;3.40;;;;;;;22.06;67.45;99730.31;12225879;19;20011;-80
2023/07/22 08:32:11;;;;;;;9.53;3.50;;;;;;;22.35;66.11;99728.06;12228217;19;20024;-80
2023/07/22 08:36:13;;;;;;;7.13;3.58;;;;;;;22.65;63.40;99724.22;12201089;19;20078;-80
2023/07/22 08:40:15;;;;;;;6.37;3.17;;;;;;;22.97;60.99;99722.06;12225201;19;20011;-80
2023/07/22 08:44:20;;;;;;;;;;;;;;;23.20;60.44;99717.00;12198568;19;20003;-79
2023/07/22 08:48:26;;;;;;;6.55;3.17;;;;;;;23.60;59.65;99716.66;12224208;19;19915;-80
2023/07/22 08:52:29;;;;;;;6.70;3.08;;;;;;;23.62;60.03;99714.34;12226580;19;20019;-79
2023/07/22 08:56:31;;;;;;;6.72;3.17;;;;;;;23.64;58.08;99717.63;12206076;19;20018;-79
2023/07/22 09:00:34;;;;;;;4.43;2.90;;;;;;;23.73;55.95;99709.16;12225763;19;20018;-79
2023/07/22 09:04:36;;;;;;;6.03;2.65;;;;;;;23.79;53.66;99713.41;12221662;19;20031;-79
2023/07/22 09:08:38;;;;;;;10.30;2.90;;;;;;;23.72;54.20;99708.34;12203962;19;20018;-78
2023/07/22 09:12:41;;;;;;;6.28;2.97;;;;;;;23.81;54.90;99705.47;12224004;19;20010;-79
2023/07/22 09:16:43;;;;;;;5.47;3.20;;;;;;;23.75;53.05;99701.22;12224312;19;20480;-80
2023/07/22 09:20:45;;;;;;;4.70;2.95;;;;;;;23.95;53.35;99708.84;12200591;19;20399;-79
2023/07/22 09:24:47;;;;;;;4.80;2.73;;;;;;;24.42;49.55;99694.59;12222394;19;20011;-79
2023/07/22 09:28:57;;;;;;;5.53;2.70;;;;;;;24.42;49.19;99700.22;12219374;19;20260;-79
2023/07/22 09:33:02;;;;;;;5.43;2.97;;;;;;;24.33;50.06;99700.28;12197185;19;20322;-79
2023/07/22 09:37:05;;;;;;;4.28;3.13;;;;;;;24.34;47.48;99703.91;12226480;19;20014;-80
2023/07/22 09:41:08;;;;;;;7.57;3.03;;;;;;;24.54;47.23;99694.66;12235061;19;20022;-79
2023/07/22 09:45:10;;;;;;;5.22;2.58;;;;;;;24.70;46.81;99692.00;12205474;19;20006;-79
2023/07/22 09:49:12;;;;;;;3.55;2.50;;;;;;;24.84;46.35;99696.47;12215101;19;20014;-79
2023/07/22 09:53:15;;;;;;;4.88;2.40;;;;;;;25.16;46.05;99692.81;12225111;19;20062;-80
2023/07/22 09:57:20;;;;;;;5.57;3.10;;;;;;;25.16;45.83;99675.88;12204501;19;20014;-79
2023/07/22 10:01:26;;;;;;;5.43;2.53;;;;;;;24.80;45.72;99687.91;12223741;19;20034;-79
2023/07/22 10:05:31;;;;;;;6.75;3.08;;;;;;;24.60;46.58;99686.81;12204782;19;20361;-80
2023/07/22 10:09:36;;;;;;;5.05;2.90;;;;;;;24.53;46.67;99680.88;12229924;19;20081;-80
2023/07/22 10:13:39;;;;;;;8.13;3.67;;;;;;;24.24;47.38;99681.78;12228696;19;20006;-79
2023/07/22 10:17:42;;;;;;;5.10;2.83;;;;;;;24.10;48.50;99674.47;12206590;19;20015;-80
2023/07/22 10:21:43;;;;;;;6.50;2.90;;;;;;;24.28;48.76;99675.13;12230289;19;20010;-80
2023/07/22 10:25:46;;;;;;;4.47;2.83;;;;;;;24.23;48.60;99672.53;12223757;19;20357;-79
2023/07/22 10:29:48;;;;;;;6.50;2.92;;;;;;;24.13;49.19;99677.78;12208718;19;20243;-80
2023/07/22 10:33:50;;;;;;;7.77;3.53;;;;;;;24.04;49.25;99670.22;12229389;19;20011;-80
2023/07/22 10:37:53;;;;;;;9.73;2.80;;;;;;;24.17;49.19;99678.72;12232548;19;20256;-80
2023/07/22 10:42:06;;;;;;;7.18;2.95;;;;;;;24.23;49.36;99671.72;12208105;19;20112;-81
2023/07/22 10:46:12;;;;;;;5.32;2.97;;;;;;;24.49;48.60;99652.59;12227749;19;20006;-80
2023/07/22 10:50:14;;;;;;;5.05;2.83;;;;;;;24.93;48.78;99654.94;12225526;19;20046;-78
2023/07/22 10:54:33;;;;;;;5.03;2.90;;;;;;;25.19;45.19;99661.13;12205990;19;20006;-79
2023/07/22 10:58:44;;;;;;;5.03;2.80;;;;;;;25.50;45.31;99658.88;12231146;19;20006;-79
2023/07/22 11:03:07;;;;;;;5.10;2.95;;;;;;;26.39;43.35;99655.16;12206775;19;20003;-82
2023/07/22 11:07:09;;;;;;;8.32;3.45;;;;;;;27.32;41.26;99644.34;12229823;19;20107;-79
2023/07/22 11:11:11;;;;;;;8.20;3.10;;;;;;;26.96;40.23;99643.41;12238588;19;20006;-79
2023/07/22 11:15:17;;;;;;;6.82;2.70;;;;;;;26.63;41.16;99638.09;12204790;19;20045;-79
2023/07/22 11:19:26;;;;;;;5.20;2.65;;;;;;;26.58;41.20;99624.22;12227763;19;20011;-79
2023/07/22 11:23:28;;;;;;;4.82;3.30;;;;;;;26.64;40.48;99631.25;12206357;19;20013;-79
2023/07/22 11:27:30;;;;;;;8.07;3.33;;;;;;;26.63;40.37;99623.97;12224407;19;20117;-79
2023/07/22 11:31:45;;;;;;;7.38;3.15;;;;;;;26.69;40.21;99618.88;12227077;19;20006;-78
2023/07/22 11:35:46;;;;;;;7.07;2.95;;;;;;;26.73;40.58;99614.13;12200453;19;20034;-79
2023/07/22 11:39:48;;;;;;;4.85;3.15;;;;;;;27.30;39.08;99606.28;12232260;19;20011;-79
2023/07/22 11:43:50;;;;;;;5.07;3.03;;;;;;;28.06;37.02;99601.16;12231896;19;20433;-81
2023/07/22 11:47:52;;;;;;;6.13;3.00;;;;;;;28.10;37.27;99600.03;12205651;19;20107;-80
2023/07/22 11:51:59;;;;;;;5.38;3.25;;;;;;;28.57;36.73;99601.78;12222573;19;20364;-80
2023/07/22 11:56:02;;;;;;;6.28;3.13;;;;;;;28.38;36.88;99594.13;12227365;19;20033;-80
2023/07/22 12:00:08;;;;;;;11.40;2.92;;;;;;;28.07;35.92;99586.63;12200054;19;20019;-80
2023/07/22 12:04:12;;;;;;;5.13;3.00;;;;;;;28.30;35.79;99586.69;12222241;19;20010;-80
2023/07/22 12:08:17;;;;;;;5.03;2.97;;;;;;;28.63;35.32;99571.13;12225146;19;20029;-81
2023/07/22 12:12:19;;;;;;;5.55;3.40;;;;;;;28.86;34.57;99562.63;12200971;19;20002;-80
2023/07/22 12:16:25;;;;;;;4.22;2.72;;;;;;;28.67;35.02;99565.50;12225910;19;20366;-82
2023/07/22 12:20:34;;;;;;;6.38;2.92;;;;;;;27.75;36.32;99560.41;12202858;19;20003;-80
2023/07/22 12:24:35;;;;;;;4.90;2.95;;;;;;;27.63;36.88;99547.22;12228541;19;20027;-80
2023/07/22 12:28:37;;;;;;;5.30;2.58;;;;;;;28.05;35.24;99554.19;12224723;19;20018;-81
2023/07/22 12:32:39;;;;;;;5.53;2.75;;;;;;;28.78;34.58;99543.84;12205449;19;20495;-80
2023/07/22 12:36:41;;;;;;;8.13;3.10;;;;;;;28.84;34.33;99534.63;12220948;19;20006;-80
2023/07/22 12:40:43;;;;;;;6.78;3.20;;;;;;;28.76;34.16;99540.56;12222976;19;20006;-81
2023/07/22 12:44:46;;;;;;;4.22;2.88;;;;;;;28.59;34.28;99542.72;12200525;19;20010;-80
2023/07/22 12:48:47;;;;;;;5.78;2.72;;;;;;;28.46;34.75;99531.94;12223510;19;20619;-80
2023/07/22 12:52:49;;;;;;;7.22;3.10;;;;;;;27.73;34.58;99529.66;12219291;19;20030;-79
2023/07/22 12:56:52;;;;;;;4.30;2.58;;;;;;;28.15;33.95;99533.78;12201530;19;20013;-80
2023/07/22 13:00:54;;;;;;;4.93;2.75;;;;;;;29.76;31.58;99527.94;12224014;19;20011;-79
2023/07/22 13:04:56;;;;;;;4.25;3.00;;;;;;;29.53;31.85;99523.13;12221451;19;20042;-80
2023/07/22 13:08:58;;;;;;;5.65;3.10;;;;;;;28.98;31.82;99525.53;12199551;19;20014;-79
2023/07/22 13:13:01;;;;;;;4.60;2.78;;;;;;;28.52;32.51;99514.22;12231967;19;20523;-80
2023/07/22 13:17:03;;;;;;;;;;;;;;;28.73;32.07;99508.09;12238570;19;20373;-81
2023/07/22 13:21:06;;;;;;;4.20;2.58;;;;;;;29.04;31.81;99515.53;12215318;19;19907;-81
2023/07/22 13:25:11;;;;;;;7.22;3.55;;;;;;;30.54;29.79;99498.75;12229501;19;20365;-80
2023/07/22 13:29:13;;;;;;;4.82;2.90;;;;;;;31.45;28.12;99496.22;12233774;19;20034;-80
2023/07/22 13:33:15;;;;;;;4.63;2.65;;;;;;;30.68;28.40;99501.72;12211307;19;20011;-81
2023/07/22 13:37:17;;;;;;;4.15;2.38;;;;;;;29.72;29.42;99490.16;12229055;19;20366;-80
2023/07/22 13:41:19;;;;;;;7.53;3.20;;;;;;;28.81;30.18;99509.06;12209875;19;20014;-79
2023/07/22 13:45:21;;;;;;;5.85;2.63;;;;;;;27.95;31.12;99508.28;12229029;19;20467;-80
2023/07/22 13:49:22;;;;;;;4.70;2.55;;;;;;;27.53;32.34;99505.38;12229386;19;20007;-80
2023/07/22 13:53:24;;;;;;;4.40;2.60;;;;;;;27.52;32.73;99506.56;12203779;19;20002;-79
2023/07/22 13:57:27;;;;;;;6.85;2.95;;;;;;;28.50;32.08;99496.00;12233251;19;20006;-79
2023/07/22 14:01:29;;;;;;;5.47;2.78;;;;;;;28.56;31.80;99495.28;12232216;19;20015;-79
2023/07/22 14:05:31;;;;;;;7.25;3.05;;;;;;;27.96;31.89;99489.28;12206211;19;20021;-80
2023/07/22 14:09:33;;;;;;;5.35;3.00;;;;;;;29.12;30.78;99487.25;12225582;19;20026;-80
2023/07/22 14:13:35;;;;;;;10.73;2.85;;;;;;;29.14;30.32;99491.38;12231754;19;20018;-80
2023/07/22 14:17:40;;;;;;;5.97;2.75;;;;;;;28.58;30.61;99486.38;12208757;19;19999;-79
2023/07/22 14:21:42;;;;;;;6.07;2.83;;;;;;;28.68;30.07;99485.78;12227441;19;20022;-79
2023/07/22 14:25:44;;;;;;;5.20;2.55;;;;;;;28.80;30.17;99479.06;12228020;19;20011;-78
2023/07/22 14:29:45;;;;;;;5.05;2.90;;;;;;;28.25;30.59;99484.16;12208353;19;20101;-79
2023/07/22 14:33:47;;;;;;;7.30;3.00;;;;;;;28.07;30.75;99486.66;12231525;19;20017;-79
2023/07/22 14:37:49;;;;;;;6.13;3.25;;;;;;;27.65;31.38;99470.44;12231981;19;20362;-80
2023/07/22 14:41:51;;;;;;;9.65;3.55;;;;;;;27.78;30.88;99473.94;12210149;19;20010;-80
2023/07/22 14:45:54;;;;;;;4.53;2.90;;;;;;;27.87;30.71;99474.53;12230456;19;20007;-80
2023/07/22 14:49:56;;;;;;;5.78;3.28;;;;;;;27.79;31.27;99455.81;12234388;19;20007;-80
2023/07/22 14:53:57;;;;;;;9.23;3.08;;;;;;;28.27;30.18;99462.75;12226677;19;20010;-79
2023/07/22 14:57:59;;;;;;;7.15;3.00;;;;;;;28.65;29.92;99452.50;12245405;19;20359;-80
2023/07/22 15:02:01;;;;;;;6.78;3.45;;;;;;;28.85;29.84;99462.56;12228812;19;20003;-79
2023/07/22 15:06:03;;;;;;;6.97;3.20;;;;;;;29.39;28.90;99454.84;12204774;19;20011;-79
2023/07/22 15:10:07;;;;;;;6.63;2.75;;;;;;;29.77;28.04;99454.91;12224328;19;20772;-80
2023/07/22 15:14:09;;;;;;;6.10;3.33;;;;;;;29.92;27.58;99448.16;12227174;19;19999;-79
2023/07/22 15:18:10;;;;;;;6.30;3.15;;;;;;;30.42;26.87;99455.19;12203953;19;20010;-81
2023/07/22 15:22:12;;;;;;;7.60;2.88;;;;;;;31.29;26.34;99443.25;12228809;19;20508;-79
2023/07/22 15:26:14;;;;;;;7.72;3.30;;;;;;;30.85;26.48;99454.75;12227634;19;20745;-80
2023/07/22 15:30:16;;;;;;;5.93;3.33;;;;;;;30.12;27.34;99455.28;12206375;19;20007;-80
2023/07/22 15:34:17;;;;;;;6.00;3.30;;;;;;;29.09;28.14;99454.81;12225367;19;20014;-79
2023/07/22 15:38:19;;;;;;;;;;;;;;;28.37;28.57;99436.63;12208901;19;20007;-80
2023/07/22 15:42:21;;;;;;;7.70;3.83;;;;;;;28.39;28.86;99431.41;12229822;19;19918;-79
2023/07/22 15:46:26;;;;;;;7.50;3.53;;;;;;;28.50;28.93;99445.78;12226508;19;20011;-81
2023/07/22 15:50:28;;;;;;;6.55;3.90;;;;;;;28.29;28.35;99445.38;12203216;19;20107;-79
2023/07/22 15:54:30;;;;;;;;;;;;;;;27.94;29.04;99437.88;12222834;19;20015;-79
2023/07/22 15:58:31;;;;;;;6.90;3.35;;;;;;;27.64;29.08;99441.31;12224979;19;19911;-80
2023/07/22 16:02:36;;;;;;;5.25;3.45;;;;;;;27.41;29.97;99421.44;12205211;19;20036;-80
2023/07/22 16:06:39;;;;;;;7.03;3.50;;;;;;;27.18;29.78;99426.19;12224797;19;20017;-79
2023/07/22 16:10:41;;;;;;;7.05;3.55;;;;;;;27.13;29.92;99432.09;12224708;19;20010;-79
2023/07/22 16:14:43;;;;;;;7.63;3.50;;;;;;;27.09;30.25;99420.72;12206641;19;20014;-79
2023/07/22 16:18:45;;;;;;;8.38;3.88;;;;;;;27.08;30.39;99426.78;12225216;19;20010;-79
2023/07/22 16:22:47;;;;;;;6.28;3.47;;;;;;;26.96;30.46;99416.41;12223325;19;20006;-80
2023/07/22 16:26:48;;;;;;;13.95;3.75;;;;;;;26.81;30.12;99410.44;12204109;19;20022;-79
2023/07/22 16:30:51;;;;;;;6.70;3.33;;;;;;;26.84;30.63;99408.88;12223534;19;20054;-79
2023/07/22 16:34:53;;;;;;;5.70;3.38;;;;;;;26.77;30.76;99412.38;12222206;19;20010;-80
2023/07/22 16:38:55;;;;;;;7.00;3.90;;;;;;;26.68;30.56;99410.91;12206007;19;20009;-78
2023/07/22 16:42:57;;;;;;;8.85;4.38;;;;;;;26.65;30.71;99418.09;12224927;19;20018;-79
2023/07/22 16:46:59;;;;;;;8.07;3.65;;;;;;;26.63;30.89;99409.19;12221237;19;20007;-80
2023/07/22 16:51:01;;;;;;;5.75;3.28;;;;;;;26.43;30.91;99401.81;12196600;19;20017;-78
2023/07/22 16:55:03;;;;;;;5.75;3.90;;;;;;;26.32;31.05;99399.53;12213961;19;20011;-80
2023/07/22 16:59:06;;;;;;;7.07;3.28;;;;;;;26.30;31.24;99407.56;12220536;19;20070;-79
2023/07/22 17:03:07;;;;;;;6.60;3.28;;;;;;;26.27;31.46;99401.84;12199331;19;20009;-77
2023/07/22 17:07:10;;;;;;;6.78;3.80;;;;;;;26.21;31.51;99400.47;12220065;19;20006;-77
2023/07/22 17:11:12;;;;;;;;;;;;;;;26.03;31.18;99398.00;12220085;19;20007;-79
2023/07/22 17:15:14;;;;;;;5.28;3.28;;;;;;;25.86;31.60;99398.34;12189851;19;19971;-80
2023/07/22 17:19:16;;;;;;;6.28;3.85;;;;;;;25.78;31.87;99397.28;12214307;19;20121;-78
2023/07/22 17:23:19;;;;;;;6.90;3.50;;;;;;;25.67;32.45;99397.03;12193570;19;20011;-79
2023/07/22 17:27:21;;;;;;;5.32;3.42;;;;;;;25.58;32.55;99402.00;12219322;19;21338;-80
2023/07/22 17:31:23;;;;;;;6.78;3.55;;;;;;;25.76;32.08;99396.84;12220090;19;20448;-79
2023/07/22 17:35:26;;;;;;;11.13;3.30;;;;;;;26.06;32.20;99394.44;12194793;19;20015;-79
2023/07/22 17:39:28;;;;;;;6.05;3.50;;;;;;;25.90;32.16;99388.78;12216876;19;20006;-79
2023/07/22 17:43:30;;;;;;;8.90;3.30;;;;;;;25.78;32.58;99386.00;12224354;19;20590;-78
2023/07/22 17:47:32;;;;;;;6.80;3.03;;;;;;;25.66;32.39;99388.91;12201241;19;20010;-79
2023/07/22 17:51:33;;;;;;;5.70;3.27;;;;;;;25.63;32.37;99381.97;12218051;19;20464;-79
2023/07/22 17:55:35;;;;;;;6.07;3.63;;;;;;;25.59;32.72;99383.09;12214215;19;20743;-79
2023/07/22 17:59:37;;;;;;;5.50;2.90;;;;;;;25.49;32.54;99383.59;12208151;19;20457;-80
2023/07/22 18:03:39;;;;;;;7.23;3.57;;;;;;;25.49;32.89;99377.94;12227789;19;20049;-80
2023/07/22 18:07:41;;;;;;;6.40;2.80;;;;;;;25.51;32.80;99386.88;12228753;19;20612;-78
2023/07/22 18:11:45;;;;;;;8.20;3.47;;;;;;;25.24;33.19;99383.72;12211555;19;20026;-78
2023/07/22 18:15:47;;;;;;;4.47;2.83;;;;;;;24.93;33.18;99378.75;12225033;19;20019;-80
2023/07/22 18:19:49;;;;;;;7.07;2.80;;;;;;;24.76;33.23;99377.00;12226208;19;20010;-80
2023/07/22 18:23:50;;;;;;;7.15;3.58;;;;;;;24.64;33.46;99383.50;12207962;19;20015;-80
2023/07/22 18:27:52;;;;;;;4.70;2.93;;;;;;;24.49;33.80;99381.41;12231713;19;20011;-80
2023/07/22 18:31:54;;;;;;;8.77;3.03;;;;;;;24.38;34.29;99385.84;12227844;19;20009;-80
2023/07/22 18:35:57;;;;;;;4.30;2.53;;;;;;;24.24;34.37;99392.66;12200889;19;20002;-81
2023/07/22 18:39:59;;;;;;;5.63;2.72;;;;;;;24.09;34.91;99396.97;12229220;19;20030;-80
2023/07/22 18:44:01;;;;;;;6.23;2.80;;;;;;;24.01;34.81;99394.28;12224157;19;20535;-80
2023/07/22 18:48:03;;;;;;;6.87;2.70;;;;;;;23.91;35.11;99395.53;12206493;19;20026;-80